sensor_id;sensor_type;location;lat;lon;timestamp;P1;durP1;ratioP1;P2;durP2;ratioP2
52438;SDS011;38359;53.150;6.504;2022-09-20T00:01:14;9.30;;;1.63;;
52438;SDS011;38359;53.150;6.504;2022-09-20T00:03:57;7.97;;;1.38;;
52438;SDS011;38359;53.150;6.504;2022-09-20T00:06:26;7.65;;;1.42;;
52438;SDS011;38359;53.150;6.504;2022-09-20T00:08:54;6.65;;;1.83;;
52438;SDS011;38359;53.150;6.504;2022-09-20T00:11:22;9.80;;;1.55;;
52438;SDS011;38359;53.150;6.504;2022-09-20T00:13:52;10.15;;;1.30;;
52438;SDS011;38359;53.150;6.504;2022-09-20T00:16:24;11.02;;;1.73;;
52438;SDS011;38359;53.150;6.504;2022-09-20T00:18:58;10.93;;;2.05;;
52438;SDS011;38359;53.150;6.504;2022-09-20T00:21:27;10.90;;;2.80;;
52438;SDS011;38359;53.150;6.504;2022-09-20T00:23:55;5.22;;;1.15;;
52438;SDS011;38359;53.150;6.504;2022-09-20T00:26:22;7.38;;;2.17;;
52438;SDS011;38359;53.150;6.504;2022-09-20T00:28:49;7.85;;;1.55;;
52438;SDS011;38359;53.150;6.504;2022-09-20T00:31:16;7.75;;;1.45;;
52438;SDS011;38359;53.150;6.504;2022-09-20T00:33:43;5.38;;;1.27;;
52438;SDS011;38359;53.150;6.504;2022-09-20T00:36:28;9.68;;;1.52;;
52438;SDS011;38359;53.150;6.504;2022-09-20T00:38:54;11.02;;;1.70;;
52438;SDS011;38359;53.150;6.504;2022-09-20T00:41:22;10.02;;;2.35;;
52438;SDS011;38359;53.150;6.504;2022-09-20T00:43:48;14.48;;;1.50;;
52438;SDS011;38359;53.150;6.504;2022-09-20T00:48:50;6.93;;;1.58;;
52438;SDS011;38359;53.150;6.504;2022-09-20T00:51:31;5.20;;;1.10;;
52438;SDS011;38359;53.150;6.504;2022-09-20T00:53:59;11.27;;;1.50;;
52438;SDS011;38359;53.150;6.504;2022-09-20T00:56:28;8.75;;;1.38;;
52438;SDS011;38359;53.150;6.504;2022-09-20T01:01:58;8.25;;;1.42;;
52438;SDS011;38359;53.150;6.504;2022-09-20T01:04:37;6.03;;;1.50;;
52438;SDS011;38359;53.150;6.504;2022-09-20T01:07:06;8.32;;;1.30;;
52438;SDS011;38359;53.150;6.504;2022-09-20T01:09:35;5.03;;;1.23;;
52438;SDS011;38359;53.150;6.504;2022-09-20T01:12:02;4.32;;;1.33;;
52438;SDS011;38359;53.150;6.504;2022-09-20T01:14:31;6.68;;;1.13;;
52438;SDS011;38359;53.150;6.504;2022-09-20T01:16:59;8.70;;;1.58;;
52438;SDS011;38359;53.150;6.504;2022-09-20T01:22:32;8.50;;;1.50;;
52438;SDS011;38359;53.150;6.504;2022-09-20T01:25:16;8.68;;;1.90;;
52438;SDS011;38359;53.150;6.504;2022-09-20T01:27:52;5.22;;;1.17;;
52438;SDS011;38359;53.150;6.504;2022-09-20T01:30:20;9.85;;;1.20;;
52438;SDS011;38359;53.150;6.504;2022-09-20T01:35:34;8.15;;;1.40;;
52438;SDS011;38359;53.150;6.504;2022-09-20T01:41:07;12.48;;;1.60;;
52438;SDS011;38359;53.150;6.504;2022-09-20T01:44:11;14.48;;;2.15;;
52438;SDS011;38359;53.150;6.504;2022-09-20T01:47:10;7.78;;;1.40;;
52438;SDS011;38359;53.150;6.504;2022-09-20T02:01:56;9.07;;;1.45;;
52438;SDS011;38359;53.150;6.504;2022-09-20T02:10:57;3.80;;;1.30;;
52438;SDS011;38359;53.150;6.504;2022-09-20T02:29:12;5.05;;;1.00;;
52438;SDS011;38359;53.150;6.504;2022-09-20T02:44:24;2.70;;;0.70;;
52438;SDS011;38359;53.150;6.504;2022-09-20T02:47:36;6.88;;;1.70;;
52438;SDS011;38359;53.150;6.504;2022-09-20T02:55:46;8.35;;;1.50;;
52438;SDS011;38359;53.150;6.504;2022-09-20T03:10:34;2.30;;;1.20;;
52438;SDS011;38359;53.150;6.504;2022-09-20T03:13:47;2.08;;;0.98;;
52438;SDS011;38359;53.150;6.504;2022-09-20T03:19:52;2.80;;;1.27;;
52438;SDS011;38359;53.150;6.504;2022-09-20T03:34:10;7.72;;;1.30;;
52438;SDS011;38359;53.150;6.504;2022-09-20T03:37:08;7.07;;;1.10;;
52438;SDS011;38359;53.150;6.504;2022-09-20T03:40:02;3.42;;;1.10;;
52438;SDS011;38359;53.150;6.504;2022-09-20T03:42:38;12.23;;;1.85;;
52438;SDS011;38359;53.150;6.504;2022-09-20T03:59:26;4.95;;;1.80;;
52438;SDS011;38359;53.150;6.504;2022-09-20T04:02:19;14.05;;;1.60;;
52438;SDS011;38359;53.150;6.504;2022-09-20T04:05:21;6.28;;;1.70;;
52438;SDS011;38359;53.150;6.504;2022-09-20T04:08:08;10.25;;;2.03;;
52438;SDS011;38359;53.150;6.504;2022-09-20T04:11:20;7.00;;;1.65;;
52438;SDS011;38359;53.150;6.504;2022-09-20T04:14:08;7.53;;;1.83;;
52438;SDS011;38359;53.150;6.504;2022-09-20T04:17:00;11.60;;;1.95;;
52438;SDS011;38359;53.150;6.504;2022-09-20T04:19:51;7.78;;;1.60;;
52438;SDS011;38359;53.150;6.504;2022-09-20T04:22:27;5.90;;;1.50;;
52438;SDS011;38359;53.150;6.504;2022-09-20T04:25:54;12.98;;;1.15;;
52438;SDS011;38359;53.150;6.504;2022-09-20T04:28:01;8.65;;;1.67;;
52438;SDS011;38359;53.150;6.504;2022-09-20T04:30:35;9.00;;;1.50;;
52438;SDS011;38359;53.150;6.504;2022-09-20T04:33:14;4.38;;;1.40;;
52438;SDS011;38359;53.150;6.504;2022-09-20T04:35:52;12.73;;;2.22;;
52438;SDS011;38359;53.150;6.504;2022-09-20T04:51:31;4.22;;;1.65;;
52438;SDS011;38359;53.150;6.504;2022-09-20T04:54:19;7.80;;;1.38;;
52438;SDS011;38359;53.150;6.504;2022-09-20T04:57:23;7.85;;;1.88;;
52438;SDS011;38359;53.150;6.504;2022-09-20T05:08:49;10.88;;;1.50;;
52438;SDS011;38359;53.150;6.504;2022-09-20T05:15:18;5.55;;;1.48;;
52438;SDS011;38359;53.150;6.504;2022-09-20T05:27:16;6.25;;;1.63;;
52438;SDS011;38359;53.150;6.504;2022-09-20T05:30:19;6.40;;;1.65;;
52438;SDS011;38359;53.150;6.504;2022-09-20T05:33:08;9.70;;;1.67;;
52438;SDS011;38359;53.150;6.504;2022-09-20T05:42:00;12.10;;;2.03;;
52438;SDS011;38359;53.150;6.504;2022-09-20T05:47:36;6.50;;;1.58;;
52438;SDS011;38359;53.150;6.504;2022-09-20T06:19:39;6.25;;;1.58;;
52438;SDS011;38359;53.150;6.504;2022-09-20T06:22:51;6.18;;;1.80;;
52438;SDS011;38359;53.150;6.504;2022-09-20T06:25:22;5.80;;;1.40;;
52438;SDS011;38359;53.150;6.504;2022-09-20T06:28:00;7.25;;;2.00;;
52438;SDS011;38359;53.150;6.504;2022-09-20T06:30:36;10.90;;;2.03;;
52438;SDS011;38359;53.150;6.504;2022-09-20T06:33:15;11.98;;;2.70;;
52438;SDS011;38359;53.150;6.504;2022-09-20T06:36:03;11.88;;;2.25;;
52438;SDS011;38359;53.150;6.504;2022-09-20T06:42:03;3.58;;;1.48;;
52438;SDS011;38359;53.150;6.504;2022-09-20T06:44:30;8.60;;;1.52;;
52438;SDS011;38359;53.150;6.504;2022-09-20T06:46:56;6.93;;;1.50;;
52438;SDS011;38359;53.150;6.504;2022-09-20T06:49:22;9.52;;;1.55;;
52438;SDS011;38359;53.150;6.504;2022-09-20T06:51:49;4.60;;;1.20;;
52438;SDS011;38359;53.150;6.504;2022-09-20T06:54:16;5.38;;;1.95;;
52438;SDS011;38359;53.150;6.504;2022-09-20T06:56:44;6.28;;;1.17;;
52438;SDS011;38359;53.150;6.504;2022-09-20T06:59:12;8.60;;;1.25;;
52438;SDS011;38359;53.150;6.504;2022-09-20T07:01:39;5.03;;;1.85;;
52438;SDS011;38359;53.150;6.504;2022-09-20T07:04:05;4.97;;;1.23;;
52438;SDS011;38359;53.150;6.504;2022-09-20T07:06:32;5.40;;;1.45;;
52438;SDS011;38359;53.150;6.504;2022-09-20T07:08:58;5.78;;;1.30;;
52438;SDS011;38359;53.150;6.504;2022-09-20T07:11:24;4.03;;;1.48;;
52438;SDS011;38359;53.150;6.504;2022-09-20T07:13:51;5.25;;;1.40;;
52438;SDS011;38359;53.150;6.504;2022-09-20T07:16:18;3.95;;;1.30;;
52438;SDS011;38359;53.150;6.504;2022-09-20T07:18:45;6.18;;;1.77;;
52438;SDS011;38359;53.150;6.504;2022-09-20T07:21:13;4.90;;;1.60;;
52438;SDS011;38359;53.150;6.504;2022-09-20T07:23:40;5.78;;;1.42;;
52438;SDS011;38359;53.150;6.504;2022-09-20T07:26:14;3.97;;;1.38;;
52438;SDS011;38359;53.150;6.504;2022-09-20T07:28:49;5.75;;;1.55;;
52438;SDS011;38359;53.150;6.504;2022-09-20T07:31:16;10.70;;;1.67;;
52438;SDS011;38359;53.150;6.504;2022-09-20T07:33:44;5.20;;;1.80;;
52438;SDS011;38359;53.150;6.504;2022-09-20T07:36:10;7.05;;;1.30;;
52438;SDS011;38359;53.150;6.504;2022-09-20T07:38:37;4.28;;;1.50;;
52438;SDS011;38359;53.150;6.504;2022-09-20T07:41:04;7.43;;;1.50;;
52438;SDS011;38359;53.150;6.504;2022-09-20T07:43:30;7.28;;;1.27;;
52438;SDS011;38359;53.150;6.504;2022-09-20T07:45:56;3.13;;;0.93;;
52438;SDS011;38359;53.150;6.504;2022-09-20T07:48:24;3.65;;;1.45;;
52438;SDS011;38359;53.150;6.504;2022-09-20T07:50:57;7.93;;;1.40;;
52438;SDS011;38359;53.150;6.504;2022-09-20T07:53:27;3.75;;;1.10;;
52438;SDS011;38359;53.150;6.504;2022-09-20T07:56:01;5.03;;;1.30;;
52438;SDS011;38359;53.150;6.504;2022-09-20T07:58:31;6.38;;;1.55;;
52438;SDS011;38359;53.150;6.504;2022-09-20T08:00:59;6.82;;;1.40;;
52438;SDS011;38359;53.150;6.504;2022-09-20T08:03:31;7.85;;;1.52;;
52438;SDS011;38359;53.150;6.504;2022-09-20T08:05:59;9.45;;;1.55;;
52438;SDS011;38359;53.150;6.504;2022-09-20T08:08:32;4.25;;;1.30;;
52438;SDS011;38359;53.150;6.504;2022-09-20T08:11:07;3.70;;;0.95;;
52438;SDS011;38359;53.150;6.504;2022-09-20T08:13:37;4.97;;;0.82;;
52438;SDS011;38359;53.150;6.504;2022-09-20T08:16:10;4.38;;;1.08;;
52438;SDS011;38359;53.150;6.504;2022-09-20T08:18:38;4.68;;;1.10;;
52438;SDS011;38359;53.150;6.504;2022-09-20T08:21:15;3.95;;;1.33;;
52438;SDS011;38359;53.150;6.504;2022-09-20T08:23:43;4.00;;;1.13;;
52438;SDS011;38359;53.150;6.504;2022-09-20T08:26:14;4.25;;;0.80;;
52438;SDS011;38359;53.150;6.504;2022-09-20T08:28:43;6.65;;;1.17;;
52438;SDS011;38359;53.150;6.504;2022-09-20T08:31:11;5.38;;;0.90;;
52438;SDS011;38359;53.150;6.504;2022-09-20T08:33:39;10.52;;;1.20;;
52438;SDS011;38359;53.150;6.504;2022-09-20T08:36:07;2.60;;;1.00;;
52438;SDS011;38359;53.150;6.504;2022-09-20T08:38:39;2.42;;;0.65;;
52438;SDS011;38359;53.150;6.504;2022-09-20T08:46:21;4.30;;;0.80;;
52438;SDS011;38359;53.150;6.504;2022-09-20T08:48:51;3.65;;;1.00;;
52438;SDS011;38359;53.150;6.504;2022-09-20T08:51:17;3.88;;;1.10;;
52438;SDS011;38359;53.150;6.504;2022-09-20T08:53:46;9.98;;;1.92;;
52438;SDS011;38359;53.150;6.504;2022-09-20T08:56:15;6.65;;;1.08;;
52438;SDS011;38359;53.150;6.504;2022-09-20T08:58:43;5.78;;;1.20;;
52438;SDS011;38359;53.150;6.504;2022-09-20T09:01:13;5.80;;;1.15;;
52438;SDS011;38359;53.150;6.504;2022-09-20T09:03:50;4.63;;;0.95;;
52438;SDS011;38359;53.150;6.504;2022-09-20T09:06:22;5.90;;;1.48;;
52438;SDS011;38359;53.150;6.504;2022-09-20T09:08:49;1.13;;;0.50;;
52438;SDS011;38359;53.150;6.504;2022-09-20T09:11:17;1.70;;;0.85;;
52438;SDS011;38359;53.150;6.504;2022-09-20T09:14:01;4.05;;;0.77;;
52438;SDS011;38359;53.150;6.504;2022-09-20T09:16:54;3.42;;;0.70;;
52438;SDS011;38359;53.150;6.504;2022-09-20T09:19:30;2.90;;;0.98;;
52438;SDS011;38359;53.150;6.504;2022-09-20T09:22:13;3.58;;;0.80;;
52438;SDS011;38359;53.150;6.504;2022-09-20T09:25:08;7.60;;;1.13;;
52438;SDS011;38359;53.150;6.504;2022-09-20T09:27:58;4.20;;;1.05;;
52438;SDS011;38359;53.150;6.504;2022-09-20T09:38:36;5.15;;;0.93;;
52438;SDS011;38359;53.150;6.504;2022-09-20T09:41:49;6.32;;;1.08;;
52438;SDS011;38359;53.150;6.504;2022-09-20T09:46:34;6.40;;;0.90;;
52438;SDS011;38359;53.150;6.504;2022-09-20T09:51:37;4.53;;;0.73;;
52438;SDS011;38359;53.150;6.504;2022-09-20T09:54:08;5.38;;;0.93;;
52438;SDS011;38359;53.150;6.504;2022-09-20T09:56:48;5.72;;;0.90;;
52438;SDS011;38359;53.150;6.504;2022-09-20T10:02:28;1.48;;;0.55;;
52438;SDS011;38359;53.150;6.504;2022-09-20T10:14:28;6.07;;;0.90;;
52438;SDS011;38359;53.150;6.504;2022-09-20T10:37:53;3.67;;;1.05;;
52438;SDS011;38359;53.150;6.504;2022-09-20T10:46:37;4.63;;;1.10;;
52438;SDS011;38359;53.150;6.504;2022-09-20T10:49:32;2.13;;;0.80;;
52438;SDS011;38359;53.150;6.504;2022-09-20T10:57:40;5.43;;;1.10;;
52438;SDS011;38359;53.150;6.504;2022-09-20T11:08:43;7.03;;;0.93;;
52438;SDS011;38359;53.150;6.504;2022-09-20T11:11:17;8.52;;;1.25;;
52438;SDS011;38359;53.150;6.504;2022-09-20T11:16:27;5.90;;;1.00;;
52438;SDS011;38359;53.150;6.504;2022-09-20T11:19:29;3.47;;;1.02;;
52438;SDS011;38359;53.150;6.504;2022-09-20T11:22:55;3.33;;;0.88;;
52438;SDS011;38359;53.150;6.504;2022-09-20T11:27:50;4.75;;;0.95;;
52438;SDS011;38359;53.150;6.504;2022-09-20T11:30:22;5.53;;;0.88;;
52438;SDS011;38359;53.150;6.504;2022-09-20T11:32:52;4.75;;;1.30;;
52438;SDS011;38359;53.150;6.504;2022-09-20T11:35:33;4.35;;;1.45;;
52438;SDS011;38359;53.150;6.504;2022-09-20T11:38:09;3.72;;;0.93;;
52438;SDS011;38359;53.150;6.504;2022-09-20T11:40:42;7.30;;;2.97;;
52438;SDS011;38359;53.150;6.504;2022-09-20T11:45:40;5.13;;;1.55;;
52438;SDS011;38359;53.150;6.504;2022-09-20T11:48:12;4.90;;;1.70;;
52438;SDS011;38359;53.150;6.504;2022-09-20T11:50:49;3.42;;;1.15;;
52438;SDS011;38359;53.150;6.504;2022-09-20T11:54:01;3.72;;;1.05;;
52438;SDS011;38359;53.150;6.504;2022-09-20T11:56:50;3.03;;;1.05;;
52438;SDS011;38359;53.150;6.504;2022-09-20T11:59:28;4.65;;;1.20;;
52438;SDS011;38359;53.150;6.504;2022-09-20T12:01:59;3.08;;;0.70;;
52438;SDS011;38359;53.150;6.504;2022-09-20T12:04:33;4.55;;;0.68;;
52438;SDS011;38359;53.150;6.504;2022-09-20T12:07:06;3.88;;;0.50;;
52438;SDS011;38359;53.150;6.504;2022-09-20T12:12:26;3.92;;;0.60;;
52438;SDS011;38359;53.150;6.504;2022-09-20T12:26:06;6.53;;;0.68;;
52438;SDS011;38359;53.150;6.504;2022-09-20T12:28:36;5.43;;;1.05;;
52438;SDS011;38359;53.150;6.504;2022-09-20T12:34:03;4.78;;;1.00;;
52438;SDS011;38359;53.150;6.504;2022-09-20T12:39:20;3.92;;;0.80;;
52438;SDS011;38359;53.150;6.504;2022-09-20T12:41:55;3.80;;;0.70;;
52438;SDS011;38359;53.150;6.504;2022-09-20T12:44:30;6.18;;;0.95;;
52438;SDS011;38359;53.150;6.504;2022-09-20T12:49:38;1.48;;;0.73;;
52438;SDS011;38359;53.150;6.504;2022-09-20T12:52:31;9.50;;;1.10;;
52438;SDS011;38359;53.150;6.504;2022-09-20T12:55:25;3.25;;;0.82;;
52438;SDS011;38359;53.150;6.504;2022-09-20T12:57:55;4.45;;;0.70;;
52438;SDS011;38359;53.150;6.504;2022-09-20T13:00:37;3.28;;;0.80;;
52438;SDS011;38359;53.150;6.504;2022-09-20T13:03:27;2.50;;;0.65;;
52438;SDS011;38359;53.150;6.504;2022-09-20T13:11:27;2.13;;;0.82;;
52438;SDS011;38359;53.150;6.504;2022-09-20T13:14:15;4.68;;;0.90;;
52438;SDS011;38359;53.150;6.504;2022-09-20T13:16:51;4.43;;;0.90;;
52438;SDS011;38359;53.150;6.504;2022-09-20T13:25:12;2.38;;;0.90;;
52438;SDS011;38359;53.150;6.504;2022-09-20T13:28:04;3.70;;;1.05;;
52438;SDS011;38359;53.150;6.504;2022-09-20T13:30:38;3.75;;;1.20;;
52438;SDS011;38359;53.150;6.504;2022-09-20T13:33:21;3.92;;;0.90;;
52438;SDS011;38359;53.150;6.504;2022-09-20T13:35:53;2.03;;;0.90;;
52438;SDS011;38359;53.150;6.504;2022-09-20T13:38:23;4.82;;;1.35;;
52438;SDS011;38359;53.150;6.504;2022-09-20T13:40:57;5.55;;;0.90;;
52438;SDS011;38359;53.150;6.504;2022-09-20T13:43:40;4.60;;;1.00;;
52438;SDS011;38359;53.150;6.504;2022-09-20T13:46:12;5.25;;;1.30;;
52438;SDS011;38359;53.150;6.504;2022-09-20T13:48:41;4.72;;;1.20;;
52438;SDS011;38359;53.150;6.504;2022-09-20T13:51:17;3.83;;;1.13;;
52438;SDS011;38359;53.150;6.504;2022-09-20T13:53:48;3.70;;;1.00;;
52438;SDS011;38359;53.150;6.504;2022-09-20T13:56:16;4.10;;;1.20;;
52438;SDS011;38359;53.150;6.504;2022-09-20T13:58:50;6.28;;;1.33;;
52438;SDS011;38359;53.150;6.504;2022-09-20T14:04:04;8.77;;;1.40;;
52438;SDS011;38359;53.150;6.504;2022-09-20T14:06:39;2.78;;;0.82;;
52438;SDS011;38359;53.150;6.504;2022-09-20T14:09:06;6.07;;;1.02;;
52438;SDS011;38359;53.150;6.504;2022-09-20T14:11:43;3.42;;;1.08;;
52438;SDS011;38359;53.150;6.504;2022-09-20T14:14:09;4.50;;;0.95;;
52438;SDS011;38359;53.150;6.504;2022-09-20T14:16:38;2.70;;;1.08;;
52438;SDS011;38359;53.150;6.504;2022-09-20T14:19:10;4.45;;;1.20;;
52438;SDS011;38359;53.150;6.504;2022-09-20T14:21:42;3.28;;;0.88;;
52438;SDS011;38359;53.150;6.504;2022-09-20T14:26:36;2.53;;;0.90;;
52438;SDS011;38359;53.150;6.504;2022-09-20T14:31:58;3.93;;;0.90;;
52438;SDS011;38359;53.150;6.504;2022-09-20T14:34:30;4.43;;;0.90;;
52438;SDS011;38359;53.150;6.504;2022-09-20T14:37:13;4.05;;;0.57;;
52438;SDS011;38359;53.150;6.504;2022-09-20T14:39:51;3.75;;;0.80;;
52438;SDS011;38359;53.150;6.504;2022-09-20T14:42:30;3.83;;;1.27;;
52438;SDS011;38359;53.150;6.504;2022-09-20T14:44:58;5.38;;;0.88;;
52438;SDS011;38359;53.150;6.504;2022-09-20T14:47:36;4.75;;;0.90;;
52438;SDS011;38359;53.150;6.504;2022-09-20T14:50:27;6.03;;;1.10;;
52438;SDS011;38359;53.150;6.504;2022-09-20T14:55:37;4.28;;;0.93;;
52438;SDS011;38359;53.150;6.504;2022-09-20T14:58:09;4.03;;;1.30;;
52438;SDS011;38359;53.150;6.504;2022-09-20T15:00:48;7.22;;;1.00;;
52438;SDS011;38359;53.150;6.504;2022-09-20T15:03:29;3.42;;;0.82;;
52438;SDS011;38359;53.150;6.504;2022-09-20T15:06:03;3.65;;;1.10;;
52438;SDS011;38359;53.150;6.504;2022-09-20T15:08:32;4.88;;;1.30;;
52438;SDS011;38359;53.150;6.504;2022-09-20T15:10:59;4.82;;;1.30;;
52438;SDS011;38359;53.150;6.504;2022-09-20T15:13:25;5.55;;;0.95;;
52438;SDS011;38359;53.150;6.504;2022-09-20T15:15:51;2.20;;;1.08;;
52438;SDS011;38359;53.150;6.504;2022-09-20T15:20:47;4.25;;;1.10;;
52438;SDS011;38359;53.150;6.504;2022-09-20T15:23:14;6.13;;;1.50;;
52438;SDS011;38359;53.150;6.504;2022-09-20T15:25:40;3.55;;;0.95;;
52438;SDS011;38359;53.150;6.504;2022-09-20T15:28:08;4.78;;;0.82;;
52438;SDS011;38359;53.150;6.504;2022-09-20T15:30:43;3.22;;;1.20;;
52438;SDS011;38359;53.150;6.504;2022-09-20T15:33:10;1.75;;;0.77;;
52438;SDS011;38359;53.150;6.504;2022-09-20T15:35:38;5.75;;;1.17;;
52438;SDS011;38359;53.150;6.504;2022-09-20T15:38:10;6.25;;;0.98;;
52438;SDS011;38359;53.150;6.504;2022-09-20T15:40:40;1.80;;;0.60;;
52438;SDS011;38359;53.150;6.504;2022-09-20T15:43:07;2.67;;;0.65;;
52438;SDS011;38359;53.150;6.504;2022-09-20T15:45:56;4.85;;;0.70;;
52438;SDS011;38359;53.150;6.504;2022-09-20T15:48:25;4.70;;;0.68;;
52438;SDS011;38359;53.150;6.504;2022-09-20T15:53:31;3.85;;;0.75;;
52438;SDS011;38359;53.150;6.504;2022-09-20T15:56:01;3.15;;;0.65;;
52438;SDS011;38359;53.150;6.504;2022-09-20T15:58:32;5.20;;;1.20;;
52438;SDS011;38359;53.150;6.504;2022-09-20T16:01:05;3.05;;;1.08;;
52438;SDS011;38359;53.150;6.504;2022-09-20T16:03:33;8.75;;;1.33;;
52438;SDS011;38359;53.150;6.504;2022-09-20T16:06:02;2.33;;;1.02;;
52438;SDS011;38359;53.150;6.504;2022-09-20T16:08:35;5.80;;;0.82;;
52438;SDS011;38359;53.150;6.504;2022-09-20T16:11:05;4.00;;;0.75;;
52438;SDS011;38359;53.150;6.504;2022-09-20T16:13:33;3.55;;;1.05;;
52438;SDS011;38359;53.150;6.504;2022-09-20T16:16:03;5.78;;;1.58;;
52438;SDS011;38359;53.150;6.504;2022-09-20T16:18:31;2.35;;;1.40;;
52438;SDS011;38359;53.150;6.504;2022-09-20T16:21:16;4.05;;;0.80;;
52438;SDS011;38359;53.150;6.504;2022-09-20T16:23:53;7.82;;;1.63;;
52438;SDS011;38359;53.150;6.504;2022-09-20T16:26:21;3.33;;;0.75;;
52438;SDS011;38359;53.150;6.504;2022-09-20T16:28:50;4.15;;;0.73;;
52438;SDS011;38359;53.150;6.504;2022-09-20T16:31:30;5.32;;;1.45;;
52438;SDS011;38359;53.150;6.504;2022-09-20T16:33:58;5.80;;;1.38;;
52438;SDS011;38359;53.150;6.504;2022-09-20T16:36:28;5.38;;;0.73;;
52438;SDS011;38359;53.150;6.504;2022-09-20T16:38:55;8.07;;;1.38;;
52438;SDS011;38359;53.150;6.504;2022-09-20T16:41:24;3.22;;;0.93;;
52438;SDS011;38359;53.150;6.504;2022-09-20T16:43:52;5.30;;;0.93;;
52438;SDS011;38359;53.150;6.504;2022-09-20T16:46:19;5.72;;;1.52;;
52438;SDS011;38359;53.150;6.504;2022-09-20T16:48:49;7.80;;;1.00;;
52438;SDS011;38359;53.150;6.504;2022-09-20T16:51:17;6.55;;;1.10;;
52438;SDS011;38359;53.150;6.504;2022-09-20T16:53:43;6.32;;;0.82;;
52438;SDS011;38359;53.150;6.504;2022-09-20T16:56:20;5.90;;;2.03;;
52438;SDS011;38359;53.150;6.504;2022-09-20T16:58:48;3.35;;;1.00;;
52438;SDS011;38359;53.150;6.504;2022-09-20T17:01:15;4.35;;;1.00;;
52438;SDS011;38359;53.150;6.504;2022-09-20T17:03:41;13.93;;;1.25;;
52438;SDS011;38359;53.150;6.504;2022-09-20T17:06:08;2.70;;;0.93;;
52438;SDS011;38359;53.150;6.504;2022-09-20T17:08:36;5.28;;;0.80;;
52438;SDS011;38359;53.150;6.504;2022-09-20T17:11:10;8.73;;;0.80;;
52438;SDS011;38359;53.150;6.504;2022-09-20T17:13:40;6.97;;;1.33;;
52438;SDS011;38359;53.150;6.504;2022-09-20T17:16:09;5.20;;;1.10;;
52438;SDS011;38359;53.150;6.504;2022-09-20T17:18:39;4.45;;;1.00;;
52438;SDS011;38359;53.150;6.504;2022-09-20T17:21:08;11.70;;;1.42;;
52438;SDS011;38359;53.150;6.504;2022-09-20T17:23:39;7.45;;;1.33;;
52438;SDS011;38359;53.150;6.504;2022-09-20T17:26:10;4.60;;;1.08;;
52438;SDS011;38359;53.150;6.504;2022-09-20T17:28:41;6.65;;;1.00;;
52438;SDS011;38359;53.150;6.504;2022-09-20T17:31:10;8.48;;;1.27;;
52438;SDS011;38359;53.150;6.504;2022-09-20T17:33:39;7.55;;;0.90;;
52438;SDS011;38359;53.150;6.504;2022-09-20T17:36:05;6.20;;;1.20;;
52438;SDS011;38359;53.150;6.504;2022-09-20T17:38:34;5.28;;;0.95;;
52438;SDS011;38359;53.150;6.504;2022-09-20T17:41:33;7.85;;;1.30;;
52438;SDS011;38359;53.150;6.504;2022-09-20T17:43:54;2.63;;;1.00;;
52438;SDS011;38359;53.150;6.504;2022-09-20T17:46:26;4.85;;;1.30;;
52438;SDS011;38359;53.150;6.504;2022-09-20T17:48:57;4.00;;;1.05;;
52438;SDS011;38359;53.150;6.504;2022-09-20T17:51:29;6.88;;;1.35;;
52438;SDS011;38359;53.150;6.504;2022-09-20T17:53:59;7.60;;;1.60;;
52438;SDS011;38359;53.150;6.504;2022-09-20T17:56:26;7.75;;;1.70;;
52438;SDS011;38359;53.150;6.504;2022-09-20T17:58:59;4.82;;;1.25;;
52438;SDS011;38359;53.150;6.504;2022-09-20T18:01:31;4.43;;;1.25;;
52438;SDS011;38359;53.150;6.504;2022-09-20T18:03:59;12.43;;;3.95;;
52438;SDS011;38359;53.150;6.504;2022-09-20T18:06:27;9.95;;;2.55;;
52438;SDS011;38359;53.150;6.504;2022-09-20T18:08:56;5.30;;;1.80;;
52438;SDS011;38359;53.150;6.504;2022-09-20T18:14:19;8.63;;;2.35;;
52438;SDS011;38359;53.150;6.504;2022-09-20T18:16:52;7.93;;;1.80;;
52438;SDS011;38359;53.150;6.504;2022-09-20T18:19:20;6.63;;;3.25;;
52438;SDS011;38359;53.150;6.504;2022-09-20T18:21:46;11.32;;;5.30;;
52438;SDS011;38359;53.150;6.504;2022-09-20T18:24:12;8.93;;;4.38;;
52438;SDS011;38359;53.150;6.504;2022-09-20T18:26:38;10.10;;;5.18;;
52438;SDS011;38359;53.150;6.504;2022-09-20T18:29:16;8.90;;;4.28;;
52438;SDS011;38359;53.150;6.504;2022-09-20T18:31:50;14.32;;;5.78;;
52438;SDS011;38359;53.150;6.504;2022-09-20T18:34:24;11.13;;;4.53;;
52438;SDS011;38359;53.150;6.504;2022-09-20T18:36:57;10.13;;;3.88;;
52438;SDS011;38359;53.150;6.504;2022-09-20T18:39:26;13.35;;;4.53;;
52438;SDS011;38359;53.150;6.504;2022-09-20T18:41:56;18.02;;;5.25;;
52438;SDS011;38359;53.150;6.504;2022-09-20T18:44:22;15.57;;;8.48;;
52438;SDS011;38359;53.150;6.504;2022-09-20T18:46:49;14.27;;;6.05;;
52438;SDS011;38359;53.150;6.504;2022-09-20T18:49:17;15.98;;;7.55;;
52438;SDS011;38359;53.150;6.504;2022-09-20T18:51:46;24.92;;;9.70;;
52438;SDS011;38359;53.150;6.504;2022-09-20T18:54:13;26.25;;;13.27;;
52438;SDS011;38359;53.150;6.504;2022-09-20T18:56:40;20.85;;;8.93;;
52438;SDS011;38359;53.150;6.504;2022-09-20T18:59:18;28.65;;;12.43;;
52438;SDS011;38359;53.150;6.504;2022-09-20T19:12:35;8.48;;;3.60;;
52438;SDS011;38359;53.150;6.504;2022-09-20T19:26:37;4.72;;;2.70;;
52438;SDS011;38359;53.150;6.504;2022-09-20T19:29:18;6.75;;;3.00;;
52438;SDS011;38359;53.150;6.504;2022-09-20T19:31:49;8.80;;;5.45;;
52438;SDS011;38359;53.150;6.504;2022-09-20T19:34:20;8.90;;;4.38;;
52438;SDS011;38359;53.150;6.504;2022-09-20T19:36:51;11.98;;;6.82;;
52438;SDS011;38359;53.150;6.504;2022-09-20T19:40:26;10.45;;;5.15;;
52438;SDS011;38359;53.150;6.504;2022-09-20T19:46:03;8.73;;;3.55;;
52438;SDS011;38359;53.150;6.504;2022-09-20T19:49:25;10.63;;;3.60;;
52438;SDS011;38359;53.150;6.504;2022-09-20T19:51:40;10.50;;;3.08;;
52438;SDS011;38359;53.150;6.504;2022-09-20T19:54:09;10.30;;;3.35;;
52438;SDS011;38359;53.150;6.504;2022-09-20T19:56:44;10.95;;;3.55;;
52438;SDS011;38359;53.150;6.504;2022-09-20T19:59:18;9.77;;;3.30;;
52438;SDS011;38359;53.150;6.504;2022-09-20T20:01:46;9.70;;;4.07;;
52438;SDS011;38359;53.150;6.504;2022-09-20T20:04:13;13.55;;;4.22;;
52438;SDS011;38359;53.150;6.504;2022-09-20T20:06:50;4.50;;;3.15;;
52438;SDS011;38359;53.150;6.504;2022-09-20T20:09:29;9.35;;;4.00;;
52438;SDS011;38359;53.150;6.504;2022-09-20T20:14:51;10.23;;;3.75;;
52438;SDS011;38359;53.150;6.504;2022-09-20T20:17:49;10.77;;;4.03;;
52438;SDS011;38359;53.150;6.504;2022-09-20T20:26:18;14.63;;;7.65;;
52438;SDS011;38359;53.150;6.504;2022-09-20T20:28:47;12.93;;;5.55;;
52438;SDS011;38359;53.150;6.504;2022-09-20T20:31:16;7.78;;;4.95;;
52438;SDS011;38359;53.150;6.504;2022-09-20T20:33:45;14.27;;;5.53;;
52438;SDS011;38359;53.150;6.504;2022-09-20T20:36:11;11.73;;;6.00;;
52438;SDS011;38359;53.150;6.504;2022-09-20T20:38:40;11.05;;;5.97;;
52438;SDS011;38359;53.150;6.504;2022-09-20T20:41:11;17.25;;;8.13;;
52438;SDS011;38359;53.150;6.504;2022-09-20T20:43:40;13.55;;;5.07;;
52438;SDS011;38359;53.150;6.504;2022-09-20T20:46:08;12.80;;;5.10;;
52438;SDS011;38359;53.150;6.504;2022-09-20T20:48:38;13.27;;;4.50;;
52438;SDS011;38359;53.150;6.504;2022-09-20T20:51:08;6.28;;;4.30;;
52438;SDS011;38359;53.150;6.504;2022-09-20T20:53:47;9.05;;;4.28;;
52438;SDS011;38359;53.150;6.504;2022-09-20T20:56:19;13.77;;;4.45;;
52438;SDS011;38359;53.150;6.504;2022-09-20T20:58:50;9.73;;;4.05;;
52438;SDS011;38359;53.150;6.504;2022-09-20T21:01:21;9.18;;;5.05;;
52438;SDS011;38359;53.150;6.504;2022-09-20T21:03:50;7.38;;;3.30;;
52438;SDS011;38359;53.150;6.504;2022-09-20T21:06:18;8.35;;;4.00;;
52438;SDS011;38359;53.150;6.504;2022-09-20T21:08:45;8.98;;;4.90;;
52438;SDS011;38359;53.150;6.504;2022-09-20T21:11:16;9.95;;;4.47;;
52438;SDS011;38359;53.150;6.504;2022-09-20T21:13:47;7.57;;;4.28;;
52438;SDS011;38359;53.150;6.504;2022-09-20T21:16:25;9.40;;;4.47;;
52438;SDS011;38359;53.150;6.504;2022-09-20T21:18:56;12.25;;;4.40;;